sensor_id;sensor_type;location;lat;lon;timestamp;P1;durP1;ratioP1;P2;durP2;ratioP2
58260;SDS011;44058;52.898;6.502;2024-03-23T00:55:37;18.90;;;4.68;;
58260;SDS011;44058;52.898;6.502;2024-03-23T00:58:04;24.83;;;6.10;;
58260;SDS011;44058;52.898;6.502;2024-03-23T01:00:31;21.67;;;5.10;;
58260;SDS011;44058;52.898;6.502;2024-03-23T01:02:59;21.40;;;5.00;;
58260;SDS011;44058;52.898;6.502;2024-03-23T01:05:26;16.48;;;4.40;;
58260;SDS011;44058;52.898;6.502;2024-03-23T01:07:53;21.63;;;4.80;;
58260;SDS011;44058;52.898;6.502;2024-03-23T01:10:20;18.58;;;5.25;;
58260;SDS011;44058;52.898;6.502;2024-03-23T01:12:47;16.63;;;4.75;;
58260;SDS011;44058;52.898;6.502;2024-03-23T01:15:15;23.02;;;5.13;;
58260;SDS011;44058;52.898;6.502;2024-03-23T01:17:42;19.92;;;4.28;;
58260;SDS011;44058;52.898;6.502;2024-03-23T01:20:09;19.13;;;5.28;;
58260;SDS011;44058;52.898;6.502;2024-03-23T01:22:36;23.88;;;5.22;;
58260;SDS011;44058;52.898;6.502;2024-03-23T01:25:03;21.10;;;4.22;;
58260;SDS011;44058;52.898;6.502;2024-03-23T01:27:31;21.42;;;4.55;;
58260;SDS011;44058;52.898;6.502;2024-03-23T01:29:58;20.67;;;4.88;;
58260;SDS011;44058;52.898;6.502;2024-03-23T01:32:25;19.58;;;4.70;;
58260;SDS011;44058;52.898;6.502;2024-03-23T01:34:53;17.65;;;4.38;;
58260;SDS011;44058;52.898;6.502;2024-03-23T01:37:20;23.88;;;4.20;;
58260;SDS011;44058;52.898;6.502;2024-03-23T01:39:47;21.00;;;4.45;;
58260;SDS011;44058;52.898;6.502;2024-03-23T01:42:14;25.10;;;4.40;;
58260;SDS011;44058;52.898;6.502;2024-03-23T01:44:41;25.63;;;4.22;;
58260;SDS011;44058;52.898;6.502;2024-03-23T01:47:09;18.15;;;3.85;;
58260;SDS011;44058;52.898;6.502;2024-03-23T01:49:36;19.17;;;4.75;;
58260;SDS011;44058;52.898;6.502;2024-03-23T01:52:04;18.13;;;4.38;;
58260;SDS011;44058;52.898;6.502;2024-03-23T01:54:31;20.25;;;5.15;;
58260;SDS011;44058;52.898;6.502;2024-03-23T01:56:59;22.08;;;4.63;;
58260;SDS011;44058;52.898;6.502;2024-03-23T01:59:26;20.80;;;3.95;;
58260;SDS011;44058;52.898;6.502;2024-03-23T02:01:53;21.67;;;4.65;;
58260;SDS011;44058;52.898;6.502;2024-03-23T02:04:20;21.38;;;4.63;;
58260;SDS011;44058;52.898;6.502;2024-03-23T02:06:47;17.45;;;4.45;;
58260;SDS011;44058;52.898;6.502;2024-03-23T02:09:15;17.52;;;3.90;;
58260;SDS011;44058;52.898;6.502;2024-03-23T02:11:42;18.50;;;3.72;;
58260;SDS011;44058;52.898;6.502;2024-03-23T02:14:09;21.73;;;4.75;;
58260;SDS011;44058;52.898;6.502;2024-03-23T02:16:36;15.88;;;4.15;;
58260;SDS011;44058;52.898;6.502;2024-03-23T02:19:03;14.70;;;3.50;;
58260;SDS011;44058;52.898;6.502;2024-03-23T02:21:31;19.00;;;4.35;;
58260;SDS011;44058;52.898;6.502;2024-03-23T02:23:59;19.98;;;3.95;;
58260;SDS011;44058;52.898;6.502;2024-03-23T02:26:26;14.65;;;4.40;;
58260;SDS011;44058;52.898;6.502;2024-03-23T02:28:53;23.58;;;4.82;;
58260;SDS011;44058;52.898;6.502;2024-03-23T02:31:20;13.57;;;4.25;;
58260;SDS011;44058;52.898;6.502;2024-03-23T02:33:47;17.17;;;4.03;;
58260;SDS011;44058;52.898;6.502;2024-03-23T02:36:15;12.15;;;3.92;;
58260;SDS011;44058;52.898;6.502;2024-03-23T02:38:42;19.15;;;4.25;;
58260;SDS011;44058;52.898;6.502;2024-03-23T02:41:09;19.50;;;4.85;;
58260;SDS011;44058;52.898;6.502;2024-03-23T02:43:36;17.85;;;4.32;;
58260;SDS011;44058;52.898;6.502;2024-03-23T02:46:03;15.23;;;4.25;;
58260;SDS011;44058;52.898;6.502;2024-03-23T02:48:31;21.45;;;4.75;;
58260;SDS011;44058;52.898;6.502;2024-03-23T02:50:59;19.15;;;4.57;;
58260;SDS011;44058;52.898;6.502;2024-03-23T02:53:26;20.63;;;4.15;;
58260;SDS011;44058;52.898;6.502;2024-03-23T02:55:54;17.23;;;4.20;;
58260;SDS011;44058;52.898;6.502;2024-03-23T02:58:21;13.85;;;3.80;;
58260;SDS011;44058;52.898;6.502;2024-03-23T03:00:48;20.67;;;4.68;;
58260;SDS011;44058;52.898;6.502;2024-03-23T03:03:16;31.30;;;5.15;;
58260;SDS011;44058;52.898;6.502;2024-03-23T03:05:43;17.60;;;4.63;;
58260;SDS011;44058;52.898;6.502;2024-03-23T03:08:10;17.50;;;4.47;;
58260;SDS011;44058;52.898;6.502;2024-03-23T03:10:37;20.65;;;3.90;;
58260;SDS011;44058;52.898;6.502;2024-03-23T03:13:05;19.40;;;4.20;;
58260;SDS011;44058;52.898;6.502;2024-03-23T03:15:32;20.83;;;4.70;;
58260;SDS011;44058;52.898;6.502;2024-03-23T03:17:59;20.60;;;4.00;;
58260;SDS011;44058;52.898;6.502;2024-03-23T03:20:26;17.25;;;3.85;;
58260;SDS011;44058;52.898;6.502;2024-03-23T03:22:53;19.25;;;3.88;;
58260;SDS011;44058;52.898;6.502;2024-03-23T03:25:21;17.58;;;3.97;;
58260;SDS011;44058;52.898;6.502;2024-03-23T03:27:48;18.25;;;4.00;;
58260;SDS011;44058;52.898;6.502;2024-03-23T03:30:15;18.23;;;3.85;;
58260;SDS011;44058;52.898;6.502;2024-03-23T03:32:42;12.40;;;3.55;;
58260;SDS011;44058;52.898;6.502;2024-03-23T03:35:10;15.50;;;3.83;;
58260;SDS011;44058;52.898;6.502;2024-03-23T03:37:37;15.57;;;3.58;;
58260;SDS011;44058;52.898;6.502;2024-03-23T03:40:04;15.75;;;4.20;;
58260;SDS011;44058;52.898;6.502;2024-03-23T03:42:34;20.25;;;3.97;;
58260;SDS011;44058;52.898;6.502;2024-03-23T03:45:03;16.67;;;4.30;;
58260;SDS011;44058;52.898;6.502;2024-03-23T03:47:30;20.50;;;4.40;;
58260;SDS011;44058;52.898;6.502;2024-03-23T03:49:58;17.17;;;3.72;;
58260;SDS011;44058;52.898;6.502;2024-03-23T03:52:25;15.48;;;3.45;;
58260;SDS011;44058;52.898;6.502;2024-03-23T03:54:55;13.65;;;3.15;;
58260;SDS011;44058;52.898;6.502;2024-03-23T03:57:22;20.25;;;3.90;;
58260;SDS011;44058;52.898;6.502;2024-03-23T03:59:50;17.83;;;3.78;;
58260;SDS011;44058;52.898;6.502;2024-03-23T04:02:17;17.90;;;3.63;;
58260;SDS011;44058;52.898;6.502;2024-03-23T04:04:44;11.85;;;3.25;;
58260;SDS011;44058;52.898;6.502;2024-03-23T04:07:11;15.52;;;3.38;;
58260;SDS011;44058;52.898;6.502;2024-03-23T04:09:38;20.00;;;3.92;;
58260;SDS011;44058;52.898;6.502;2024-03-23T04:12:06;16.48;;;3.78;;
58260;SDS011;44058;52.898;6.502;2024-03-23T04:14:33;14.52;;;3.30;;
58260;SDS011;44058;52.898;6.502;2024-03-23T04:17:03;9.80;;;3.20;;
58260;SDS011;44058;52.898;6.502;2024-03-23T04:19:30;10.48;;;3.13;;
58260;SDS011;44058;52.898;6.502;2024-03-23T04:21:57;17.35;;;3.72;;
58260;SDS011;44058;52.898;6.502;2024-03-23T04:24:25;12.65;;;3.38;;
58260;SDS011;44058;52.898;6.502;2024-03-23T04:26:52;14.50;;;3.00;;
58260;SDS011;44058;52.898;6.502;2024-03-23T04:29:20;18.80;;;3.35;;
58260;SDS011;44058;52.898;6.502;2024-03-23T04:31:47;18.05;;;4.28;;
58260;SDS011;44058;52.898;6.502;2024-03-23T04:34:14;16.70;;;3.53;;
58260;SDS011;44058;52.898;6.502;2024-03-23T04:36:41;16.05;;;3.50;;
58260;SDS011;44058;52.898;6.502;2024-03-23T04:39:09;15.65;;;3.70;;
58260;SDS011;44058;52.898;6.502;2024-03-23T04:41:36;11.50;;;2.90;;
58260;SDS011;44058;52.898;6.502;2024-03-23T04:44:03;18.40;;;3.60;;
58260;SDS011;44058;52.898;6.502;2024-03-23T04:46:30;17.17;;;3.55;;
58260;SDS011;44058;52.898;6.502;2024-03-23T04:48:57;13.10;;;3.38;;
58260;SDS011;44058;52.898;6.502;2024-03-23T04:51:25;14.57;;;3.22;;
58260;SDS011;44058;52.898;6.502;2024-03-23T04:53:53;13.75;;;3.55;;
58260;SDS011;44058;52.898;6.502;2024-03-23T04:56:20;19.15;;;3.55;;
58260;SDS011;44058;52.898;6.502;2024-03-23T04:58:48;11.02;;;3.13;;
58260;SDS011;44058;52.898;6.502;2024-03-23T05:01:15;12.85;;;2.75;;
58260;SDS011;44058;52.898;6.502;2024-03-23T05:03:42;13.60;;;3.40;;
58260;SDS011;44058;52.898;6.502;2024-03-23T05:06:09;14.10;;;3.20;;
58260;SDS011;44058;52.898;6.502;2024-03-23T05:08:37;12.52;;;3.60;;
58260;SDS011;44058;52.898;6.502;2024-03-23T05:11:04;20.58;;;3.35;;
58260;SDS011;44058;52.898;6.502;2024-03-23T05:13:33;17.73;;;3.70;;
58260;SDS011;44058;52.898;6.502;2024-03-23T05:16:00;15.27;;;3.83;;
58260;SDS011;44058;52.898;6.502;2024-03-23T05:18:27;14.98;;;3.30;;
58260;SDS011;44058;52.898;6.502;2024-03-23T05:20:55;14.77;;;3.40;;
58260;SDS011;44058;52.898;6.502;2024-03-23T05:23:24;11.68;;;3.17;;
58260;SDS011;44058;52.898;6.502;2024-03-23T05:25:51;21.38;;;3.90;;
58260;SDS011;44058;52.898;6.502;2024-03-23T05:28:19;14.27;;;3.33;;
58260;SDS011;44058;52.898;6.502;2024-03-23T05:30:53;18.67;;;3.20;;
58260;SDS011;44058;52.898;6.502;2024-03-23T05:33:20;12.75;;;2.70;;
58260;SDS011;44058;52.898;6.502;2024-03-23T05:35:55;18.08;;;3.88;;
58260;SDS011;44058;52.898;6.502;2024-03-23T05:38:23;12.00;;;3.22;;
58260;SDS011;44058;52.898;6.502;2024-03-23T05:40:56;15.38;;;3.30;;
58260;SDS011;44058;52.898;6.502;2024-03-23T05:43:24;13.60;;;3.20;;
58260;SDS011;44058;52.898;6.502;2024-03-23T05:46:00;13.10;;;3.22;;
58260;SDS011;44058;52.898;6.502;2024-03-23T05:48:28;11.05;;;3.00;;
58260;SDS011;44058;52.898;6.502;2024-03-23T05:50:56;12.30;;;2.65;;
58260;SDS011;44058;52.898;6.502;2024-03-23T05:53:25;12.77;;;3.38;;
58260;SDS011;44058;52.898;6.502;2024-03-23T05:55:59;11.98;;;3.53;;
58260;SDS011;44058;52.898;6.502;2024-03-23T05:58:26;10.15;;;2.90;;
58260;SDS011;44058;52.898;6.502;2024-03-23T06:01:00;14.85;;;2.90;;
58260;SDS011;44058;52.898;6.502;2024-03-23T06:03:28;13.25;;;3.15;;
58260;SDS011;44058;52.898;6.502;2024-03-23T06:05:56;14.85;;;3.10;;
58260;SDS011;44058;52.898;6.502;2024-03-23T06:08:23;14.48;;;3.10;;
58260;SDS011;44058;52.898;6.502;2024-03-23T06:10:50;13.02;;;2.25;;
58260;SDS011;44058;52.898;6.502;2024-03-23T06:13:18;11.48;;;2.30;;
58260;SDS011;44058;52.898;6.502;2024-03-23T06:15:46;9.57;;;2.13;;
58260;SDS011;44058;52.898;6.502;2024-03-23T06:20:42;6.60;;;1.70;;
58260;SDS011;44058;52.898;6.502;2024-03-23T06:23:09;7.55;;;1.73;;
58260;SDS011;44058;52.898;6.502;2024-03-23T06:25:36;9.18;;;2.33;;
58260;SDS011;44058;52.898;6.502;2024-03-23T06:28:03;7.63;;;1.52;;
58260;SDS011;44058;52.898;6.502;2024-03-23T06:30:31;5.13;;;1.58;;
58260;SDS011;44058;52.898;6.502;2024-03-23T06:32:58;6.88;;;1.27;;
58260;SDS011;44058;52.898;6.502;2024-03-23T06:35:25;5.90;;;0.95;;
58260;SDS011;44058;52.898;6.502;2024-03-23T06:37:53;3.03;;;1.08;;
58260;SDS011;44058;52.898;6.502;2024-03-23T06:40:20;7.50;;;1.27;;
58260;SDS011;44058;52.898;6.502;2024-03-23T06:42:47;5.57;;;1.00;;
58260;SDS011;44058;52.898;6.502;2024-03-23T06:45:14;6.82;;;1.50;;
58260;SDS011;44058;52.898;6.502;2024-03-23T06:47:41;6.60;;;1.80;;
58260;SDS011;44058;52.898;6.502;2024-03-23T06:50:09;10.10;;;2.08;;
58260;SDS011;44058;52.898;6.502;2024-03-23T06:52:36;12.48;;;2.00;;
58260;SDS011;44058;52.898;6.502;2024-03-23T06:55:04;11.98;;;2.22;;
58260;SDS011;44058;52.898;6.502;2024-03-23T06:57:32;11.43;;;2.65;;
58260;SDS011;44058;52.898;6.502;2024-03-23T06:59:59;6.50;;;2.13;;
58260;SDS011;44058;52.898;6.502;2024-03-23T07:02:26;11.00;;;2.10;;
58260;SDS011;44058;52.898;6.502;2024-03-23T07:04:54;8.93;;;2.55;;
58260;SDS011;44058;52.898;6.502;2024-03-23T07:07:22;9.80;;;2.55;;
58260;SDS011;44058;52.898;6.502;2024-03-23T07:09:49;11.30;;;2.63;;
58260;SDS011;44058;52.898;6.502;2024-03-23T07:12:16;12.32;;;2.92;;
58260;SDS011;44058;52.898;6.502;2024-03-23T07:14:43;6.00;;;2.22;;
58260;SDS011;44058;52.898;6.502;2024-03-23T07:17:11;11.07;;;2.63;;
58260;SDS011;44058;52.898;6.502;2024-03-23T07:19:38;6.88;;;2.20;;
58260;SDS011;44058;52.898;6.502;2024-03-23T07:22:06;9.80;;;2.17;;
58260;SDS011;44058;52.898;6.502;2024-03-23T07:24:33;12.38;;;2.33;;
58260;SDS011;44058;52.898;6.502;2024-03-23T07:27:00;10.23;;;2.20;;
58260;SDS011;44058;52.898;6.502;2024-03-23T07:31:56;9.43;;;2.45;;
58260;SDS011;44058;52.898;6.502;2024-03-23T07:34:24;7.18;;;1.63;;
58260;SDS011;44058;52.898;6.502;2024-03-23T07:36:51;12.63;;;1.67;;
58260;SDS011;44058;52.898;6.502;2024-03-23T07:39:18;5.30;;;1.30;;
58260;SDS011;44058;52.898;6.502;2024-03-23T07:41:45;5.30;;;1.48;;
58260;SDS011;44058;52.898;6.502;2024-03-23T07:44:13;3.95;;;1.40;;
58260;SDS011;44058;52.898;6.502;2024-03-23T07:46:40;5.80;;;1.40;;
58260;SDS011;44058;52.898;6.502;2024-03-23T07:49:07;7.10;;;1.40;;
58260;SDS011;44058;52.898;6.502;2024-03-23T07:51:34;5.88;;;1.90;;
58260;SDS011;44058;52.898;6.502;2024-03-23T07:54:02;6.68;;;1.40;;
58260;SDS011;44058;52.898;6.502;2024-03-23T07:56:30;6.22;;;2.05;;
58260;SDS011;44058;52.898;6.502;2024-03-23T07:58:57;4.05;;;1.40;;
58260;SDS011;44058;52.898;6.502;2024-03-23T08:01:24;5.43;;;1.38;;
58260;SDS011;44058;52.898;6.502;2024-03-23T08:03:51;3.97;;;1.30;;
58260;SDS011;44058;52.898;6.502;2024-03-23T08:06:19;5.03;;;1.60;;
58260;SDS011;44058;52.898;6.502;2024-03-23T08:08:51;10.38;;;1.70;;
58260;SDS011;44058;52.898;6.502;2024-03-23T08:11:26;7.95;;;1.75;;
58260;SDS011;44058;52.898;6.502;2024-03-23T08:13:53;11.30;;;1.90;;
58260;SDS011;44058;52.898;6.502;2024-03-23T08:16:20;8.60;;;2.00;;
58260;SDS011;44058;52.898;6.502;2024-03-23T08:18:48;9.27;;;2.17;;
58260;SDS011;44058;52.898;6.502;2024-03-23T08:21:15;6.63;;;1.67;;
58260;SDS011;44058;52.898;6.502;2024-03-23T08:23:42;6.53;;;1.67;;
58260;SDS011;44058;52.898;6.502;2024-03-23T08:26:11;6.43;;;1.48;;
58260;SDS011;44058;52.898;6.502;2024-03-23T08:28:39;7.13;;;1.73;;
58260;SDS011;44058;52.898;6.502;2024-03-23T08:31:10;6.88;;;1.77;;
58260;SDS011;44058;52.898;6.502;2024-03-23T08:33:37;6.82;;;1.55;;
58260;SDS011;44058;52.898;6.502;2024-03-23T08:36:06;9.20;;;1.77;;
58260;SDS011;44058;52.898;6.502;2024-03-23T08:38:34;10.02;;;1.70;;
58260;SDS011;44058;52.898;6.502;2024-03-23T08:41:02;10.35;;;2.67;;
58260;SDS011;44058;52.898;6.502;2024-03-23T08:43:30;8.73;;;2.13;;
58260;SDS011;44058;52.898;6.502;2024-03-23T08:46:10;8.63;;;1.92;;
58260;SDS011;44058;52.898;6.502;2024-03-23T08:48:38;8.30;;;2.03;;
58260;SDS011;44058;52.898;6.502;2024-03-23T08:51:07;8.87;;;2.10;;
58260;SDS011;44058;52.898;6.502;2024-03-23T08:53:34;8.30;;;2.35;;
58260;SDS011;44058;52.898;6.502;2024-03-23T08:56:02;7.03;;;1.80;;
58260;SDS011;44058;52.898;6.502;2024-03-23T08:58:31;4.10;;;1.85;;
58260;SDS011;44058;52.898;6.502;2024-03-23T09:01:08;3.83;;;1.90;;
58260;SDS011;44058;52.898;6.502;2024-03-23T09:03:36;7.53;;;1.95;;
58260;SDS011;44058;52.898;6.502;2024-03-23T09:06:07;6.80;;;1.98;;
58260;SDS011;44058;52.898;6.502;2024-03-23T09:08:34;7.93;;;2.25;;
58260;SDS011;44058;52.898;6.502;2024-03-23T09:11:06;10.00;;;2.50;;
58260;SDS011;44058;52.898;6.502;2024-03-23T09:13:33;8.00;;;2.60;;
58260;SDS011;44058;52.898;6.502;2024-03-23T09:16:01;6.80;;;2.75;;
58260;SDS011;44058;52.898;6.502;2024-03-23T09:18:31;6.22;;;1.75;;
58260;SDS011;44058;52.898;6.502;2024-03-23T09:20:58;9.93;;;2.50;;
58260;SDS011;44058;52.898;6.502;2024-03-23T09:23:25;11.65;;;2.63;;
58260;SDS011;44058;52.898;6.502;2024-03-23T09:25:52;8.32;;;2.10;;
58260;SDS011;44058;52.898;6.502;2024-03-23T09:28:20;8.63;;;1.92;;
58260;SDS011;44058;52.898;6.502;2024-03-23T09:30:47;12.48;;;2.50;;
58260;SDS011;44058;52.898;6.502;2024-03-23T09:33:14;7.20;;;2.10;;
58260;SDS011;44058;52.898;6.502;2024-03-23T09:35:42;5.22;;;1.70;;
58260;SDS011;44058;52.898;6.502;2024-03-23T09:38:09;10.63;;;2.28;;
58260;SDS011;44058;52.898;6.502;2024-03-23T09:40:40;9.43;;;1.95;;
58260;SDS011;44058;52.898;6.502;2024-03-23T09:43:08;6.65;;;2.03;;
58260;SDS011;44058;52.898;6.502;2024-03-23T09:45:38;7.68;;;2.55;;
58260;SDS011;44058;52.898;6.502;2024-03-23T09:48:09;12.40;;;2.58;;
58260;SDS011;44058;52.898;6.502;2024-03-23T09:50:40;8.25;;;2.45;;
58260;SDS011;44058;52.898;6.502;2024-03-23T09:53:07;10.32;;;2.20;;
58260;SDS011;44058;52.898;6.502;2024-03-23T09:55:35;8.65;;;2.25;;
58260;SDS011;44058;52.898;6.502;2024-03-23T09:58:02;10.23;;;1.95;;
58260;SDS011;44058;52.898;6.502;2024-03-23T10:00:32;12.18;;;2.35;;
58260;SDS011;44058;52.898;6.502;2024-03-23T10:03:03;11.70;;;2.28;;
58260;SDS011;44058;52.898;6.502;2024-03-23T10:05:32;10.32;;;1.80;;
58260;SDS011;44058;52.898;6.502;2024-03-23T10:08:17;13.85;;;2.38;;
58260;SDS011;44058;52.898;6.502;2024-03-23T10:10:45;7.97;;;1.65;;
58260;SDS011;44058;52.898;6.502;2024-03-23T10:13:27;9.57;;;1.90;;
58260;SDS011;44058;52.898;6.502;2024-03-23T10:15:58;9.75;;;2.63;;
58260;SDS011;44058;52.898;6.502;2024-03-23T10:18:25;8.38;;;2.42;;
58260;SDS011;44058;52.898;6.502;2024-03-23T10:23:35;6.47;;;1.40;;
58260;SDS011;44058;52.898;6.502;2024-03-23T10:26:24;6.90;;;1.30;;
58260;SDS011;44058;52.898;6.502;2024-03-23T10:28:52;10.07;;;1.80;;
58260;SDS011;44058;52.898;6.502;2024-03-23T10:31:20;7.10;;;1.85;;
58260;SDS011;44058;52.898;6.502;2024-03-23T10:33:48;6.43;;;1.40;;
58260;SDS011;44058;52.898;6.502;2024-03-23T10:36:16;6.72;;;1.63;;
58260;SDS011;44058;52.898;6.502;2024-03-23T10:38:44;5.80;;;1.33;;
58260;SDS011;44058;52.898;6.502;2024-03-23T10:41:11;9.02;;;1.40;;
58260;SDS011;44058;52.898;6.502;2024-03-23T10:43:38;5.05;;;1.38;;
58260;SDS011;44058;52.898;6.502;2024-03-23T10:46:06;8.98;;;1.70;;
58260;SDS011;44058;52.898;6.502;2024-03-23T10:48:33;5.95;;;1.33;;
58260;SDS011;44058;52.898;6.502;2024-03-23T10:51:00;6.32;;;1.40;;
58260;SDS011;44058;52.898;6.502;2024-03-23T10:53:28;3.05;;;1.00;;
58260;SDS011;44058;52.898;6.502;2024-03-23T10:55:55;3.13;;;0.77;;
58260;SDS011;44058;52.898;6.502;2024-03-23T11:01:00;4.57;;;1.00;;
58260;SDS011;44058;52.898;6.502;2024-03-23T11:03:32;2.55;;;1.00;;
58260;SDS011;44058;52.898;6.502;2024-03-23T11:06:00;1.60;;;0.80;;
58260;SDS011;44058;52.898;6.502;2024-03-23T11:09:01;3.13;;;0.80;;
58260;SDS011;44058;52.898;6.502;2024-03-23T11:11:21;4.18;;;0.82;;
58260;SDS011;44058;52.898;6.502;2024-03-23T11:13:50;3.08;;;1.20;;
58260;SDS011;44058;52.898;6.502;2024-03-23T11:16:25;3.70;;;1.40;;
58260;SDS011;44058;52.898;6.502;2024-03-23T11:21:52;7.15;;;1.20;;
58260;SDS011;44058;52.898;6.502;2024-03-23T11:24:20;4.65;;;1.00;;
58260;SDS011;44058;52.898;6.502;2024-03-23T11:26:48;8.10;;;1.60;;
58260;SDS011;44058;52.898;6.502;2024-03-23T11:29:16;7.28;;;1.50;;
58260;SDS011;44058;52.898;6.502;2024-03-23T11:31:47;5.00;;;1.10;;
58260;SDS011;44058;52.898;6.502;2024-03-23T11:34:15;4.93;;;1.10;;
58260;SDS011;44058;52.898;6.502;2024-03-23T11:36:42;4.90;;;1.00;;
58260;SDS011;44058;52.898;6.502;2024-03-23T11:39:16;5.03;;;0.90;;
58260;SDS011;44058;52.898;6.502;2024-03-23T11:41:54;5.07;;;1.08;;
58260;SDS011;44058;52.898;6.502;2024-03-23T11:44:25;5.10;;;1.23;;
58260;SDS011;44058;52.898;6.502;2024-03-23T11:46:52;3.83;;;1.65;;
58260;SDS011;44058;52.898;6.502;2024-03-23T11:49:26;7.18;;;1.63;;
58260;SDS011;44058;52.898;6.502;2024-03-23T11:51:54;9.77;;;1.50;;
58260;SDS011;44058;52.898;6.502;2024-03-23T11:54:24;9.23;;;1.80;;
58260;SDS011;44058;52.898;6.502;2024-03-23T11:59:34;7.80;;;1.67;;
58260;SDS011;44058;52.898;6.502;2024-03-23T12:02:09;7.05;;;2.00;;
58260;SDS011;44058;52.898;6.502;2024-03-23T12:04:37;1.98;;;0.60;;
58260;SDS011;44058;52.898;6.502;2024-03-23T12:07:24;2.30;;;0.47;;
58260;SDS011;44058;52.898;6.502;2024-03-23T12:10:03;1.15;;;0.30;;
58260;SDS011;44058;52.898;6.502;2024-03-23T12:12:32;1.85;;;0.40;;
58260;SDS011;44058;52.898;6.502;2024-03-23T12:15:03;2.47;;;0.50;;
58260;SDS011;44058;52.898;6.502;2024-03-23T12:17:31;3.20;;;0.73;;
58260;SDS011;44058;52.898;6.502;2024-03-23T12:19:59;3.10;;;1.08;;
58260;SDS011;44058;52.898;6.502;2024-03-23T12:22:26;3.58;;;0.90;;
58260;SDS011;44058;52.898;6.502;2024-03-23T12:24:53;5.20;;;0.93;;
58260;SDS011;44058;52.898;6.502;2024-03-23T12:27:20;5.13;;;1.45;;
58260;SDS011;44058;52.898;6.502;2024-03-23T12:29:48;7.15;;;1.77;;
58260;SDS011;44058;52.898;6.502;2024-03-23T12:32:15;5.80;;;1.40;;
58260;SDS011;44058;52.898;6.502;2024-03-23T12:34:42;8.60;;;1.58;;
58260;SDS011;44058;52.898;6.502;2024-03-23T12:37:09;7.30;;;1.50;;
58260;SDS011;44058;52.898;6.502;2024-03-23T12:39:38;8.13;;;1.85;;
58260;SDS011;44058;52.898;6.502;2024-03-23T12:42:06;8.18;;;1.40;;
58260;SDS011;44058;52.898;6.502;2024-03-23T12:44:33;7.03;;;1.70;;
58260;SDS011;44058;52.898;6.502;2024-03-23T12:47:00;5.95;;;1.90;;
58260;SDS011;44058;52.898;6.502;2024-03-23T12:49:27;8.35;;;1.60;;
58260;SDS011;44058;52.898;6.502;2024-03-23T12:51:56;10.88;;;1.98;;
58260;SDS011;44058;52.898;6.502;2024-03-23T12:54:23;4.60;;;1.63;;
58260;SDS011;44058;52.898;6.502;2024-03-23T12:56:51;6.93;;;1.67;;
58260;SDS011;44058;52.898;6.502;2024-03-23T12:59:18;7.32;;;2.03;;
58260;SDS011;44058;52.898;6.502;2024-03-23T13:01:46;7.40;;;1.75;;
58260;SDS011;44058;52.898;6.502;2024-03-23T13:04:14;8.10;;;1.80;;
58260;SDS011;44058;52.898;6.502;2024-03-23T13:06:41;10.13;;;1.90;;
58260;SDS011;44058;52.898;6.502;2024-03-23T13:09:08;9.13;;;2.13;;
58260;SDS011;44058;52.898;6.502;2024-03-23T13:11:35;11.13;;;2.10;;
58260;SDS011;44058;52.898;6.502;2024-03-23T13:14:02;7.93;;;1.80;;
58260;SDS011;44058;52.898;6.502;2024-03-23T13:16:30;7.63;;;2.05;;
58260;SDS011;44058;52.898;6.502;2024-03-23T13:18:58;5.60;;;1.42;;
58260;SDS011;44058;52.898;6.502;2024-03-23T13:21:27;6.50;;;1.58;;
58260;SDS011;44058;52.898;6.502;2024-03-23T13:23:54;9.13;;;1.80;;
58260;SDS011;44058;52.898;6.502;2024-03-23T13:26:21;8.32;;;2.00;;
58260;SDS011;44058;52.898;6.502;2024-03-23T13:28:48;8.32;;;1.85;;
58260;SDS011;44058;52.898;6.502;2024-03-23T13:31:16;8.00;;;2.05;;
58260;SDS011;44058;52.898;6.502;2024-03-23T13:33:43;8.57;;;1.88;;
58260;SDS011;44058;52.898;6.502;2024-03-23T13:36:10;6.13;;;1.90;;
58260;SDS011;44058;52.898;6.502;2024-03-23T13:38:37;5.38;;;1.42;;
58260;SDS011;44058;52.898;6.502;2024-03-23T13:41:05;11.77;;;1.90;;
58260;SDS011;44058;52.898;6.502;2024-03-23T13:43:33;11.25;;;1.67;;
58260;SDS011;44058;52.898;6.502;2024-03-23T13:46:01;7.82;;;1.80;;
58260;SDS011;44058;52.898;6.502;2024-03-23T13:48:28;9.52;;;2.00;;
58260;SDS011;44058;52.898;6.502;2024-03-23T13:50:59;7.32;;;1.83;;
58260;SDS011;44058;52.898;6.502;2024-03-23T13:53:26;11.88;;;2.20;;
58260;SDS011;44058;52.898;6.502;2024-03-23T13:55:53;8.07;;;2.10;;
58260;SDS011;44058;52.898;6.502;2024-03-23T13:58:20;7.82;;;1.90;;
58260;SDS011;44058;52.898;6.502;2024-03-23T14:00:48;10.18;;;1.90;;
58260;SDS011;44058;52.898;6.502;2024-03-23T14:03:15;9.32;;;2.03;;
58260;SDS011;44058;52.898;6.502;2024-03-23T14:05:45;7.63;;;1.98;;
58260;SDS011;44058;52.898;6.502;2024-03-23T14:08:14;8.82;;;2.00;;
58260;SDS011;44058;52.898;6.502;2024-03-23T14:10:42;9.30;;;1.85;;
58260;SDS011;44058;52.898;6.502;2024-03-23T14:13:09;9.95;;;1.88;;
58260;SDS011;44058;52.898;6.502;2024-03-23T14:15:37;7.97;;;1.73;;
58260;SDS011;44058;52.898;6.502;2024-03-23T14:18:04;12.18;;;2.22;;
58260;SDS011;44058;52.898;6.502;2024-03-23T14:20:31;11.52;;;2.38;;
58260;SDS011;44058;52.898;6.502;2024-03-23T14:22:58;6.88;;;1.80;;
58260;SDS011;44058;52.898;6.502;2024-03-23T14:25:25;9.32;;;1.80;;
58260;SDS011;44058;52.898;6.502;2024-03-23T14:27:55;10.48;;;2.03;;
58260;SDS011;44058;52.898;6.502;2024-03-23T14:30:25;7.70;;;2.03;;
58260;SDS011;44058;52.898;6.502;2024-03-23T14:32:52;7.28;;;1.75;;
58260;SDS011;44058;52.898;6.502;2024-03-23T14:35:19;8.88;;;1.42;;
58260;SDS011;44058;52.898;6.502;2024-03-23T14:37:46;7.07;;;1.98;;
58260;SDS011;44058;52.898;6.502;2024-03-23T14:40:14;9.20;;;1.92;;
58260;SDS011;44058;52.898;6.502;2024-03-23T14:42:41;9.05;;;1.73;;
58260;SDS011;44058;52.898;6.502;2024-03-23T14:45:08;6.05;;;1.55;;
58260;SDS011;44058;52.898;6.502;2024-03-23T14:47:35;7.28;;;1.50;;
58260;SDS011;44058;52.898;6.502;2024-03-23T14:50:03;4.10;;;1.00;;
58260;SDS011;44058;52.898;6.502;2024-03-23T14:52:30;7.68;;;1.95;;
58260;SDS011;44058;52.898;6.502;2024-03-23T14:54:57;4.03;;;1.17;;
58260;SDS011;44058;52.898;6.502;2024-03-23T14:57:24;5.75;;;1.52;;
58260;SDS011;44058;52.898;6.502;2024-03-23T14:59:52;11.55;;;1.60;;
58260;SDS011;44058;52.898;6.502;2024-03-23T15:02:19;9.07;;;1.42;;
58260;SDS011;44058;52.898;6.502;2024-03-23T15:04:46;8.98;;;1.88;;
58260;SDS011;44058;52.898;6.502;2024-03-23T15:07:14;6.88;;;2.17;;
58260;SDS011;44058;52.898;6.502;2024-03-23T15:09:42;7.00;;;1.63;;
58260;SDS011;44058;52.898;6.502;2024-03-23T15:12:09;8.43;;;1.50;;
58260;SDS011;44058;52.898;6.502;2024-03-23T15:14:37;7.43;;;1.45;;
58260;SDS011;44058;52.898;6.502;2024-03-23T15:17:04;10.05;;;1.63;;
58260;SDS011;44058;52.898;6.502;2024-03-23T15:19:33;6.22;;;1.27;;
58260;SDS011;44058;52.898;6.502;2024-03-23T15:22:00;5.47;;;1.42;;
58260;SDS011;44058;52.898;6.502;2024-03-23T15:24:28;6.60;;;1.73;;
58260;SDS011;44058;52.898;6.502;2024-03-23T15:26:55;7.68;;;1.60;;
58260;SDS011;44058;52.898;6.502;2024-03-23T15:29:22;8.95;;;1.80;;
58260;SDS011;44058;52.898;6.502;2024-03-23T15:31:49;6.40;;;1.40;;
58260;SDS011;44058;52.898;6.502;2024-03-23T15:34:19;7.35;;;1.38;;
58260;SDS011;44058;52.898;6.502;2024-03-23T15:39:19;6.50;;;1.45;;
58260;SDS011;44058;52.898;6.502;2024-03-23T15:41:48;5.40;;;1.10;;
58260;SDS011;44058;52.898;6.502;2024-03-23T15:44:15;7.28;;;1.30;;
58260;SDS011;44058;52.898;6.502;2024-03-23T15:46:42;3.35;;;1.02;;
58260;SDS011;44058;52.898;6.502;2024-03-23T15:49:09;5.40;;;1.15;;
58260;SDS011;44058;52.898;6.502;2024-03-23T15:51:36;7.75;;;1.50;;
58260;SDS011;44058;52.898;6.502;2024-03-23T15:56:33;4.60;;;0.95;;
58260;SDS011;44058;52.898;6.502;2024-03-23T15:59:00;5.93;;;1.27;;
58260;SDS011;44058;52.898;6.502;2024-03-23T16:01:32;7.95;;;1.23;;